createdAt,value
2023-04-21T00:01:46.276Z,65.91
2023-04-21T00:04:13.990Z,65.55
2023-04-21T00:06:41.732Z,65.68
2023-04-21T00:09:09.165Z,65.62
2023-04-21T00:11:36.924Z,64.93
2023-04-21T00:14:04.155Z,66.24
2023-04-21T00:16:31.826Z,66.04
2023-04-21T00:18:59.471Z,66.93
2023-04-21T00:21:27.053Z,67.52
2023-04-21T00:23:54.292Z,67.61
2023-04-21T00:26:21.807Z,67.45
2023-04-21T00:28:50.733Z,67.26
2023-04-21T00:31:18.279Z,66.39
2023-04-21T00:33:45.621Z,66.61
2023-04-21T00:36:13.087Z,66.76
2023-04-21T00:38:40.269Z,66.59
2023-04-21T00:41:09.016Z,67.12
2023-04-21T00:43:58.402Z,67.77
2023-04-21T00:46:26.101Z,67.83
2023-04-21T00:48:53.949Z,68.73
2023-04-21T00:51:21.836Z,68.99
2023-04-21T00:53:50.881Z,68.32
2023-04-21T00:56:19.111Z,67.88
2023-04-21T00:58:46.440Z,68.05
2023-04-21T01:01:14.926Z,68.33
2023-04-21T01:03:47.767Z,69.08
2023-04-21T01:06:15.763Z,68.92
2023-04-21T01:08:44.052Z,68.51
2023-04-21T01:11:12.973Z,69.31
2023-04-21T01:13:41.077Z,69.20
2023-04-21T01:16:08.877Z,68.69
2023-04-21T01:18:37.044Z,69.97
2023-04-21T01:21:06.297Z,69.71
2023-04-21T01:23:35.005Z,69.83
2023-04-21T01:26:02.888Z,70.10
2023-04-21T01:28:30.063Z,69.71
2023-04-21T01:30:57.867Z,70.07
2023-04-21T01:33:25.518Z,69.66
2023-04-21T01:35:53.015Z,70.92
2023-04-21T01:38:20.387Z,70.27
2023-04-21T01:40:51.399Z,70.46
2023-04-21T01:43:21.191Z,69.84
2023-04-21T01:45:48.767Z,70.16
2023-04-21T01:48:16.111Z,70.23
2023-04-21T01:50:43.764Z,70.38
2023-04-21T01:53:11.276Z,69.87
2023-04-21T01:55:38.798Z,70.29
2023-04-21T01:58:09.063Z,71.08
2023-04-21T02:00:36.818Z,71.51
2023-04-21T02:03:05.407Z,71.63
2023-04-21T02:05:33.139Z,72.28
2023-04-21T02:08:00.560Z,72.53
2023-04-21T02:10:28.075Z,72.28
2023-04-21T02:12:55.508Z,71.77
2023-04-21T02:15:23.054Z,72.01
2023-04-21T02:17:50.280Z,70.83
2023-04-21T02:20:17.885Z,70.81
2023-04-21T02:22:45.134Z,71.10
2023-04-21T02:25:12.722Z,71.30
2023-04-21T02:27:39.963Z,71.15
2023-04-21T02:30:07.991Z,71.45
2023-04-21T02:32:35.459Z,71.35
2023-04-21T02:35:05.535Z,71.85
2023-04-21T02:37:32.773Z,71.99
2023-04-21T02:40:00.332Z,72.49
2023-04-21T02:42:27.466Z,72.40
2023-04-21T02:44:54.961Z,71.97
2023-04-21T02:47:22.237Z,71.49
2023-04-21T02:49:49.761Z,71.35
2023-04-21T02:52:16.990Z,71.60
2023-04-21T02:54:44.455Z,71.95
2023-04-21T02:57:11.724Z,71.21
2023-04-21T02:59:40.572Z,71.13
2023-04-21T03:02:07.916Z,72.84
2023-04-21T03:04:39.472Z,72.44
2023-04-21T03:07:11.990Z,72.11
2023-04-21T03:09:40.713Z,71.74
2023-04-21T03:12:08.013Z,72.09
2023-04-21T03:14:36.817Z,72.34
2023-04-21T03:17:04.007Z,72.59
2023-04-21T03:19:33.221Z,72.29
2023-04-21T03:22:00.460Z,71.81
2023-04-21T03:24:28.313Z,72.14
2023-04-21T03:26:57.054Z,72.37
2023-04-21T03:29:24.779Z,72.55
2023-04-21T03:31:51.978Z,72.51
2023-04-21T03:34:19.748Z,72.35
2023-04-21T03:36:47.162Z,71.83
2023-04-21T03:39:20.030Z,72.20
2023-04-21T03:41:48.911Z,71.69
2023-04-21T03:44:16.370Z,70.57
2023-04-21T03:46:43.546Z,69.86
2023-04-21T03:49:11.208Z,69.81
2023-04-21T03:51:38.374Z,68.63
2023-04-21T03:54:06.087Z,64.48
2023-04-21T03:56:33.242Z,62.05
2023-04-21T03:59:00.944Z,59.29
2023-04-21T04:01:28.125Z,58.13
2023-04-21T04:03:56.042Z,55.31
2023-04-21T04:06:23.314Z,56.02
2023-04-21T04:08:50.779Z,55.68
2023-04-21T04:11:17.984Z,55.48
2023-04-21T04:13:45.594Z,54.84
2023-04-21T04:16:12.816Z,54.38
2023-04-21T04:18:40.404Z,53.49
2023-04-21T04:21:08.271Z,51.77
2023-04-21T04:23:35.789Z,50.07
2023-04-21T04:26:05.787Z,45.90
2023-04-21T04:28:33.791Z,43.63
2023-04-21T04:31:01.202Z,41.94
2023-04-21T04:33:29.082Z,40.66
2023-04-21T04:35:56.434Z,42.06
2023-04-21T04:38:24.083Z,39.88
2023-04-21T04:40:55.296Z,39.21
2023-04-21T04:43:23.201Z,36.50
2023-04-21T04:45:50.358Z,35.09
2023-04-21T04:48:17.927Z,34.67
2023-04-21T04:50:45.408Z,32.65
2023-04-21T04:53:13.099Z,32.30
2023-04-21T04:55:40.284Z,32.40
2023-04-21T04:58:07.892Z,31.00
2023-04-21T05:00:35.112Z,28.57
2023-04-21T05:03:02.700Z,28.26
2023-04-21T05:05:30.087Z,26.38
2023-04-21T05:07:58.061Z,26.10
2023-04-21T05:10:25.561Z,25.41
2023-04-21T05:12:53.075Z,24.31
2023-04-21T05:15:20.329Z,24.58
2023-04-21T05:17:47.825Z,25.36
2023-04-21T05:20:15.424Z,25.02
2023-04-21T05:22:42.896Z,23.03
2023-04-21T05:25:15.974Z,23.33
2023-04-21T05:27:43.744Z,23.98
2023-04-21T05:30:11.531Z,26.34
2023-04-21T05:32:39.144Z,29.54
2023-04-21T05:35:06.787Z,31.29
2023-04-21T05:37:34.366Z,34.59
2023-04-21T05:40:01.549Z,38.33
2023-04-21T05:42:29.137Z,39.02
2023-04-21T05:44:56.352Z,39.96
2023-04-21T05:47:23.899Z,40.45
2023-04-21T05:49:54.158Z,41.38
2023-04-21T05:52:21.979Z,40.54
2023-04-21T05:54:49.291Z,42.34
2023-04-21T05:57:17.852Z,41.54
2023-04-21T05:59:45.113Z,36.09
2023-04-21T06:02:12.952Z,31.27
2023-04-21T06:04:40.495Z,28.09
2023-04-21T06:07:10.439Z,26.84
2023-04-21T06:09:38.374Z,25.28
2023-04-21T06:12:06.353Z,23.47
2023-04-21T06:14:33.781Z,22.41
2023-04-21T06:17:01.278Z,21.77
2023-04-21T06:19:28.471Z,20.58
2023-04-21T06:21:57.197Z,23.36
2023-04-21T06:24:27.135Z,21.06
2023-04-21T06:26:54.585Z,19.70
2023-04-21T06:29:21.740Z,20.56
2023-04-21T06:31:49.302Z,20.96
2023-04-21T06:34:16.620Z,20.81
2023-04-21T06:36:44.194Z,20.87
2023-04-21T06:39:11.492Z,20.87
2023-04-21T06:41:38.941Z,20.33
2023-04-21T06:44:06.260Z,18.87
2023-04-21T06:46:33.790Z,16.76
2023-04-21T06:49:01.095Z,20.77
2023-04-21T06:51:28.730Z,20.08
2023-04-21T06:53:56.001Z,22.18
2023-04-21T06:56:23.442Z,23.66
2023-04-21T06:58:50.718Z,22.79
2023-04-21T07:01:18.299Z,19.68
2023-04-21T07:03:45.992Z,18.27
2023-04-21T07:06:13.598Z,17.08
2023-04-21T07:08:41.530Z,17.56
2023-04-21T07:11:09.113Z,16.60
2023-04-21T07:13:36.390Z,19.39
2023-04-21T07:16:04.262Z,19.54
2023-04-21T07:18:32.656Z,20.18
2023-04-21T07:21:01.125Z,20.57
2023-04-21T07:23:28.478Z,19.39
2023-04-21T07:25:59.120Z,20.46
2023-04-21T07:28:26.730Z,19.60
2023-04-21T07:30:54.259Z,22.04
2023-04-21T07:33:21.516Z,19.54
2023-04-21T07:35:49.213Z,19.95
2023-04-21T07:38:16.398Z,21.58
2023-04-21T07:40:43.989Z,19.45
2023-04-21T07:43:11.152Z,19.51
2023-04-21T07:45:38.639Z,20.25
2023-04-21T07:48:07.652Z,18.27
2023-04-21T07:50:37.936Z,18.56
2023-04-21T07:53:05.499Z,18.53
2023-04-21T07:55:33.043Z,19.60
2023-04-21T07:58:00.253Z,20.69
2023-04-21T08:00:27.765Z,18.55
2023-04-21T08:02:55.150Z,18.92
2023-04-21T08:05:22.884Z,17.98
2023-04-21T08:07:50.440Z,19.08
2023-04-21T08:10:17.956Z,18.41
2023-04-21T08:12:45.418Z,17.75
2023-04-21T08:15:13.000Z,22.48
2023-04-21T08:17:40.235Z,23.29
2023-04-21T08:20:08.578Z,21.90
2023-04-21T08:22:36.649Z,20.64
2023-04-21T08:25:05.735Z,22.80
2023-04-21T08:27:32.938Z,24.86
2023-04-21T08:30:00.583Z,25.67
2023-04-21T08:32:27.836Z,27.43
2023-04-21T08:34:55.589Z,25.34
2023-04-21T08:37:23.449Z,23.75
2023-04-21T08:39:51.013Z,22.34
2023-04-21T08:42:18.987Z,27.72
2023-04-21T08:44:47.269Z,26.48
2023-04-21T08:47:15.884Z,26.08
2023-04-21T08:49:45.304Z,23.10
2023-04-21T08:52:14.470Z,25.61
2023-04-21T08:54:42.805Z,23.47
2023-04-21T08:57:15.208Z,26.79
2023-04-21T08:59:45.081Z,25.79
2023-04-21T09:02:15.570Z,25.33
2023-04-21T09:04:43.381Z,28.12
2023-04-21T09:07:11.811Z,30.15
2023-04-21T09:09:58.278Z,30.52
2023-04-21T09:12:25.529Z,31.55
2023-04-21T09:14:53.128Z,34.08
2023-04-21T09:17:27.545Z,27.44
2023-04-21T09:19:55.029Z,27.58
2023-04-21T09:22:27.548Z,27.78
2023-04-21T09:25:02.535Z,27.21
2023-04-21T09:27:29.857Z,30.68
2023-04-21T09:30:03.860Z,30.83
2023-04-21T09:32:36.836Z,31.10
2023-04-21T09:35:04.873Z,30.95
2023-04-21T09:37:36.113Z,30.69
2023-04-21T09:40:05.156Z,30.37
2023-04-21T09:42:35.467Z,31.80
2023-04-21T09:47:40.499Z,30.55
2023-04-21T09:50:12.538Z,31.20
2023-04-21T09:52:42.170Z,27.12
2023-04-21T09:55:13.658Z,25.23
2023-04-21T09:57:43.098Z,26.45
2023-04-21T10:00:12.538Z,25.65
2023-04-21T10:02:45.466Z,24.48
2023-04-21T10:05:13.157Z,26.48
2023-04-21T10:07:40.574Z,27.34
2023-04-21T10:10:16.787Z,29.54
2023-04-21T10:12:44.846Z,27.33
2023-04-21T10:15:31.818Z,27.88
2023-04-21T10:18:21.824Z,27.02
2023-04-21T10:21:09.017Z,28.47
2023-04-21T10:23:37.622Z,25.80
2023-04-21T10:26:07.688Z,27.21
2023-04-21T10:28:55.127Z,26.73
2023-04-21T10:31:27.191Z,26.58
2023-04-21T10:34:07.501Z,28.72
2023-04-21T10:36:47.316Z,29.48
2023-04-21T10:39:53.252Z,29.16
2023-04-21T10:42:28.419Z,27.76
2023-04-21T10:44:58.590Z,27.56
2023-04-21T10:47:29.517Z,26.54
2023-04-21T10:49:58.290Z,27.88
2023-04-21T10:52:35.947Z,26.85
2023-04-21T10:55:10.682Z,26.55
2023-04-21T10:57:43.359Z,25.43
2023-04-21T11:00:12.560Z,24.79
2023-04-21T11:02:42.545Z,24.45
2023-04-21T11:05:11.785Z,26.56
2023-04-21T11:07:39.585Z,27.17
2023-04-21T11:10:08.498Z,26.80
2023-04-21T11:12:40.491Z,28.45
2023-04-21T11:15:13.318Z,29.78
2023-04-21T11:17:43.581Z,29.60
2023-04-21T11:20:11.306Z,31.41
2023-04-21T11:22:39.071Z,31.39
2023-04-21T11:25:16.409Z,31.84
2023-04-21T11:27:53.914Z,32.77
2023-04-21T11:30:21.542Z,32.61
2023-04-21T11:32:56.098Z,33.33
2023-04-21T11:35:23.467Z,34.61
2023-04-21T11:37:52.198Z,35.63
2023-04-21T11:40:19.678Z,34.56
2023-04-21T11:42:47.209Z,34.87
2023-04-21T11:45:22.255Z,35.60
2023-04-21T11:47:50.363Z,35.94
2023-04-21T11:50:34.313Z,36.51
2023-04-21T11:53:02.996Z,37.37
2023-04-21T11:55:30.273Z,37.06
2023-04-21T11:57:57.958Z,35.97
2023-04-21T12:00:31.426Z,36.03
2023-04-21T12:02:59.159Z,36.84
2023-04-21T12:05:35.997Z,37.35
2023-04-21T12:08:06.526Z,37.47
2023-04-21T12:10:34.012Z,36.84
2023-04-21T12:13:01.952Z,38.48
2023-04-21T12:15:30.571Z,39.78
2023-04-21T12:17:58.134Z,38.80
2023-04-21T12:20:28.514Z,39.08
2023-04-21T12:22:56.664Z,39.07
2023-04-21T12:25:25.256Z,40.13
2023-04-21T12:27:54.475Z,40.34
2023-04-21T12:30:22.039Z,39.37
2023-04-21T12:32:49.477Z,38.83
2023-04-21T12:35:17.208Z,38.61
2023-04-21T12:37:45.143Z,39.20
2023-04-21T12:40:12.720Z,38.74
2023-04-21T12:42:39.923Z,39.91
2023-04-21T12:45:07.949Z,41.18
2023-04-21T12:47:37.161Z,43.73
2023-04-21T12:50:05.447Z,44.40
2023-04-21T12:52:32.612Z,43.43
2023-04-21T12:55:00.171Z,44.08
2023-04-21T12:57:27.535Z,42.67
2023-04-21T12:59:56.030Z,42.64
2023-04-21T13:02:23.412Z,41.36
2023-04-21T13:04:51.032Z,42.77
2023-04-21T13:07:21.383Z,42.44
2023-04-21T13:09:48.968Z,41.98
2023-04-21T13:12:16.513Z,42.03
2023-04-21T13:14:44.119Z,42.34
2023-04-21T13:17:11.429Z,42.95
2023-04-21T13:19:38.973Z,44.17
2023-04-21T13:22:06.149Z,42.91
2023-04-21T13:24:34.070Z,43.63
2023-04-21T13:27:04.452Z,43.31
2023-04-21T13:29:34.528Z,42.39
2023-04-21T13:32:03.308Z,42.81
2023-04-21T13:34:33.428Z,42.74
2023-04-21T13:37:01.726Z,43.46
2023-04-21T13:39:29.420Z,42.80
2023-04-21T13:41:56.796Z,42.83
2023-04-21T13:44:24.558Z,43.09
2023-04-21T13:46:53.963Z,42.73
2023-04-21T13:49:21.536Z,42.98
2023-04-21T13:51:48.892Z,41.35
2023-04-21T13:54:16.575Z,41.69
2023-04-21T13:56:43.847Z,41.63
2023-04-21T13:59:11.396Z,40.77
2023-04-21T14:01:38.753Z,41.13
2023-04-21T14:04:07.003Z,41.54
2023-04-21T14:06:34.430Z,41.79
2023-04-21T14:09:01.953Z,41.27
2023-04-21T14:11:29.302Z,44.61
2023-04-21T14:14:09.149Z,40.03
2023-04-21T14:16:38.714Z,39.48
2023-04-21T14:19:06.973Z,38.05
2023-04-21T14:21:34.792Z,37.88
2023-04-21T14:24:02.504Z,37.58
2023-04-21T14:26:29.808Z,37.67
2023-04-21T14:28:57.353Z,38.63
2023-04-21T14:31:24.855Z,37.80
2023-04-21T14:33:52.427Z,36.72
2023-04-21T14:36:19.686Z,37.54
2023-04-21T14:38:47.249Z,38.17
2023-04-21T14:41:14.714Z,37.01
2023-04-21T14:43:42.229Z,36.52
2023-04-21T14:46:09.569Z,35.87
2023-04-21T14:48:37.108Z,37.52
2023-04-21T14:51:06.193Z,36.28
2023-04-21T14:53:33.778Z,35.93
2023-04-21T14:56:01.005Z,35.69
2023-04-21T14:58:28.552Z,36.23
2023-04-21T15:00:56.445Z,35.39
2023-04-21T15:03:24.297Z,35.05
2023-04-21T15:05:51.813Z,35.35
2023-04-21T15:08:19.516Z,34.88
2023-04-21T15:10:47.727Z,33.92
2023-04-21T15:13:15.326Z,33.65
2023-04-21T15:15:42.706Z,33.05
2023-04-21T15:18:10.648Z,32.66
2023-04-21T15:20:45.380Z,33.42
2023-04-21T15:23:13.538Z,32.66
2023-04-21T15:25:40.963Z,32.40
2023-04-21T15:28:08.825Z,31.92
2023-04-21T15:30:36.251Z,33.78
2023-04-21T15:33:03.940Z,32.13
2023-04-21T15:35:31.242Z,32.99
2023-04-21T15:37:58.806Z,31.94
2023-04-21T15:40:26.282Z,31.57
2023-04-21T15:42:53.981Z,31.08
2023-04-21T15:45:21.262Z,31.01
2023-04-21T15:47:48.825Z,31.14
2023-04-21T15:50:16.361Z,30.96
2023-04-21T15:52:44.421Z,31.65
2023-04-21T15:55:12.228Z,32.61
2023-04-21T15:57:39.881Z,32.04
2023-04-21T16:00:10.621Z,31.76
2023-04-21T16:02:38.434Z,32.65
2023-04-21T16:05:06.452Z,33.06
2023-04-21T16:07:34.262Z,33.37
2023-04-21T16:10:01.457Z,33.70
2023-04-21T16:12:29.055Z,34.62
2023-04-21T16:15:04.023Z,35.38
2023-04-21T16:17:37.326Z,35.72
2023-04-21T16:20:05.776Z,36.00
2023-04-21T16:22:33.473Z,35.52
2023-04-21T16:25:01.798Z,38.15
2023-04-21T16:27:29.434Z,40.56
2023-04-21T16:29:56.779Z,38.68
2023-04-21T16:32:24.500Z,37.73
2023-04-21T16:34:51.984Z,38.52
2023-04-21T16:37:19.637Z,38.81
2023-04-21T16:39:46.847Z,39.61
2023-04-21T16:42:14.443Z,40.77
2023-04-21T16:44:41.779Z,39.55
2023-04-21T16:47:09.352Z,39.78
2023-04-21T16:49:36.669Z,40.30
2023-04-21T16:52:04.199Z,39.88
2023-04-21T16:54:31.507Z,39.46
2023-04-21T16:56:59.024Z,39.69
2023-04-21T16:59:26.201Z,39.31
2023-04-21T17:01:53.750Z,39.44
2023-04-21T17:04:21.140Z,38.97
2023-04-21T17:06:48.703Z,38.07
2023-04-21T17:09:16.198Z,38.79
2023-04-21T17:11:45.955Z,39.15
2023-04-21T17:14:13.214Z,38.95
2023-04-21T17:16:40.918Z,38.39
2023-04-21T17:19:08.114Z,39.28
2023-04-21T17:21:35.968Z,39.20
2023-04-21T17:24:03.242Z,38.08
2023-04-21T17:26:30.824Z,38.37
2023-04-21T17:28:58.044Z,38.55
2023-04-21T17:31:29.427Z,39.44
2023-04-21T17:33:57.398Z,39.02
2023-04-21T17:36:27.602Z,38.61
2023-04-21T17:38:55.712Z,39.40
2023-04-21T17:41:26.687Z,40.33
2023-04-21T17:43:57.215Z,39.75
2023-04-21T17:46:25.483Z,40.01
2023-04-21T17:48:52.822Z,40.26
2023-04-21T17:51:20.514Z,40.21
2023-04-21T17:53:47.733Z,40.49
2023-04-21T17:56:15.227Z,40.10
2023-04-21T17:58:42.501Z,40.34
2023-04-21T18:01:10.012Z,40.64
2023-04-21T18:03:37.942Z,40.17
2023-04-21T18:06:05.889Z,39.75
2023-04-21T18:08:33.163Z,39.95
2023-04-21T18:11:00.867Z,39.73
2023-04-21T18:13:28.081Z,39.85
2023-04-21T18:15:55.699Z,39.84
2023-04-21T18:18:23.001Z,39.92
2023-04-21T18:20:50.612Z,40.14
2023-04-21T18:23:17.799Z,39.67
2023-04-21T18:25:47.002Z,40.00
2023-04-21T18:28:14.480Z,39.59
2023-04-21T18:30:42.322Z,40.42
2023-04-21T18:33:11.786Z,39.79
2023-04-21T18:35:41.256Z,39.64
2023-04-21T18:38:10.583Z,40.34
2023-04-21T18:40:38.220Z,40.15
2023-04-21T18:43:05.614Z,40.65
2023-04-21T18:45:34.064Z,40.37
2023-04-21T18:48:01.381Z,39.93
2023-04-21T18:50:29.077Z,40.57
2023-04-21T18:52:56.502Z,40.59
2023-04-21T18:55:24.059Z,40.22
2023-04-21T18:57:51.320Z,40.70
2023-04-21T19:00:19.172Z,40.53
2023-04-21T19:02:48.868Z,40.62
2023-04-21T19:05:17.104Z,41.69
2023-04-21T19:07:44.389Z,41.75
2023-04-21T19:10:11.996Z,42.35
2023-04-21T19:12:39.596Z,41.38
2023-04-21T19:15:07.692Z,41.41
2023-04-21T19:17:35.009Z,42.00
2023-04-21T19:20:02.713Z,42.21
2023-04-21T19:22:32.077Z,42.70
2023-04-21T19:25:00.956Z,43.27
2023-04-21T19:27:30.076Z,43.72
2023-04-21T19:29:58.822Z,44.04
2023-04-21T19:32:26.403Z,44.18
2023-04-21T19:34:54.062Z,44.49
2023-04-21T19:37:21.477Z,44.38
2023-04-21T19:39:48.999Z,44.58
2023-04-21T19:42:16.212Z,44.35
2023-04-21T19:44:43.893Z,43.65
2023-04-21T19:47:11.172Z,43.39
2023-04-21T19:49:38.692Z,42.66
2023-04-21T19:52:06.137Z,42.56
2023-04-21T19:54:33.669Z,43.07
2023-04-21T19:57:01.800Z,42.58
2023-04-21T19:59:29.288Z,42.77
2023-04-21T20:01:56.866Z,42.36
2023-04-21T20:04:24.562Z,42.39
2023-04-21T20:06:52.030Z,42.61
2023-04-21T20:09:19.519Z,42.76
2023-04-21T20:11:46.862Z,42.50
2023-04-21T20:14:14.353Z,42.70
2023-04-21T20:16:43.083Z,42.70
2023-04-21T20:19:11.554Z,43.02
2023-04-21T20:21:39.202Z,43.16
2023-04-21T20:24:08.639Z,43.28
2023-04-21T20:26:37.003Z,43.58
2023-04-21T20:29:04.512Z,43.90
2023-04-21T20:31:31.880Z,43.38
2023-04-21T20:33:59.362Z,42.93
2023-04-21T20:36:27.654Z,42.22
2023-04-21T20:38:57.675Z,42.09
2023-04-21T20:41:24.853Z,41.42
2023-04-21T20:43:52.924Z,41.52
2023-04-21T20:46:20.190Z,41.75
2023-04-21T20:48:47.688Z,41.74
2023-04-21T20:51:14.861Z,42.16
2023-04-21T20:53:42.376Z,41.76
2023-04-21T20:56:09.575Z,41.72
2023-04-21T20:58:37.119Z,41.95
2023-04-21T21:01:04.407Z,42.08
2023-04-21T21:03:32.168Z,42.09
2023-04-21T21:05:59.509Z,42.06
2023-04-21T21:08:28.119Z,41.99
2023-04-21T21:10:55.442Z,41.61
2023-04-21T21:13:22.971Z,41.44
2023-04-21T21:15:50.300Z,41.23
2023-04-21T21:18:17.865Z,41.71
2023-04-21T21:20:45.167Z,41.55
2023-04-21T21:23:12.796Z,41.77
2023-04-21T21:25:40.064Z,41.34
2023-04-21T21:28:07.537Z,41.70
2023-04-21T21:30:34.827Z,41.86
2023-04-21T21:33:02.432Z,41.94
2023-04-21T21:35:29.600Z,41.61
2023-04-21T21:37:57.277Z,41.05
2023-04-21T21:40:24.474Z,41.03
2023-04-21T21:42:51.954Z,41.04
2023-04-21T21:45:19.164Z,40.70
2023-04-21T21:47:46.711Z,40.44
2023-04-21T21:50:13.891Z,40.58
2023-04-21T21:52:41.443Z,40.49
2023-04-21T21:55:09.087Z,40.87
2023-04-21T21:57:37.019Z,40.86
2023-04-21T22:00:08.237Z,40.47
2023-04-21T22:02:36.332Z,40.97
2023-04-21T22:05:06.357Z,40.85
2023-04-21T22:07:35.448Z,40.98
2023-04-21T22:10:03.740Z,40.84
2023-04-21T22:12:33.060Z,40.74
2023-04-21T22:15:00.411Z,41.57
2023-04-21T22:17:29.573Z,41.07
2023-04-21T22:19:57.841Z,41.48
2023-04-21T22:22:25.396Z,41.35
2023-04-21T22:24:52.633Z,40.46
2023-04-21T22:27:20.093Z,40.00
2023-04-21T22:29:47.295Z,40.51
2023-04-21T22:32:15.217Z,41.03
2023-04-21T22:34:42.453Z,40.64
2023-04-21T22:37:10.327Z,40.66
2023-04-21T22:39:38.604Z,41.26
2023-04-21T22:42:06.962Z,41.56
2023-04-21T22:44:34.256Z,41.71
2023-04-21T22:47:01.815Z,42.05
2023-04-21T22:49:29.227Z,42.33
2023-04-21T22:51:56.792Z,42.68
2023-04-21T22:54:23.964Z,42.76
2023-04-21T22:56:51.821Z,42.60
2023-04-21T22:59:19.058Z,42.31
2023-04-21T23:01:46.557Z,41.97
2023-04-21T23:04:14.049Z,42.09
2023-04-21T23:06:43.652Z,42.39
2023-04-21T23:09:11.243Z,42.43
2023-04-21T23:11:38.740Z,43.02
2023-04-21T23:14:05.939Z,43.20
2023-04-21T23:16:33.419Z,44.19
2023-04-21T23:19:00.716Z,44.15
2023-04-21T23:21:28.779Z,45.03
2023-04-21T23:23:55.970Z,45.24
2023-04-21T23:26:23.525Z,45.93
2023-04-21T23:28:50.732Z,44.98
2023-04-21T23:31:18.283Z,43.83
2023-04-21T23:33:45.578Z,43.78
2023-04-21T23:36:13.168Z,44.10
2023-04-21T23:38:40.401Z,43.40
2023-04-21T23:41:07.865Z,43.27
2023-04-21T23:43:37.206Z,43.06
2023-04-21T23:46:04.761Z,42.86
2023-04-21T23:48:32.115Z,42.97
2023-04-21T23:50:59.745Z,42.94
2023-04-21T23:53:27.125Z,43.83
2023-04-21T23:55:54.725Z,44.94
2023-04-21T23:58:22.014Z,45.10
